Decoded Metar for YPKG (KALGOORLIE in AUSTRALIA) (IATA:KGI) | Meteo·Mobile Aviation Weather
aviador You're here:

YPKG Decoded Metar

KALGOORLIE in AUSTRALIA
Report Time2018-12-15 17:00:00
UTC Time2018-12-15 17:19:16
Flight Rules vfr VFR
Wind090° at 13 kt
W.Decomp.*RWY 11: 12.1 kt HW 4.7 kt LCW
RWY 36: 0.2 kt HW 13.0 kt RCW
W.Rank090° ranks 6
Current wind is above 090° avg. (8.1)
Visibility9999 m
Phenomena:N/A
Clouds:N/A
Expected CloudBase > 8,400 ft AGL from Temp-Dew spread
CeilingNone
Temp25°C (ISA +12)
Dew Point04°C (26% RH)
AAT19.0°C
QNH1002 hPa
Density Alt3,091 ft
Elevation1,181 ft
Report Wrong Elevation
Raw Report
METAR YPKG 151700Z AUTO 09013KT 9999 // NCD 25/04 Q1002=

Extra information for YPKG:More info

Metar Taf Metar & Taf Last 4 Metars F.Rules Stats Wind Profile Meteogram Temp Stats Airport Information Weather charts Add Link Nearby VenuesMetar ALERT Operation Metar Decoded Social comments